createdAt,value
2019-04-29T00:00:11.526Z,4.20
2019-04-29T00:02:42.481Z,4.33
2019-04-29T00:05:13.473Z,4.20
2019-04-29T00:07:45.172Z,4.00
2019-04-29T00:10:21.331Z,4.20
2019-04-29T00:12:51.943Z,4.17
2019-04-29T00:15:46.786Z,3.97
2019-04-29T00:18:39.625Z,4.20
2019-04-29T00:21:10.077Z,4.00
2019-04-29T00:23:43.987Z,3.43
2019-04-29T00:26:16.681Z,3.60
2019-04-29T00:28:50.334Z,3.53
2019-04-29T00:31:20.129Z,3.70
2019-04-29T00:33:50.692Z,3.70
2019-04-29T00:36:23.030Z,3.90
2019-04-29T00:39:03.169Z,3.37
2019-04-29T00:41:43.869Z,3.00
2019-04-29T00:44:20.779Z,3.37
2019-04-29T00:46:51.510Z,3.40
2019-04-29T00:49:24.262Z,4.23
2019-04-29T00:51:58.324Z,3.80
2019-04-29T00:54:30.969Z,4.07
2019-04-29T00:57:01.483Z,4.77
2019-04-29T00:59:37.107Z,4.00
2019-04-29T01:02:09.137Z,4.17
2019-04-29T01:04:39.665Z,4.40
2019-04-29T01:07:10.480Z,3.90
2019-04-29T01:09:41.536Z,4.17
2019-04-29T01:12:12.299Z,4.07
2019-04-29T01:14:42.910Z,3.97
2019-04-29T01:17:13.774Z,3.30
2019-04-29T01:19:44.669Z,3.27
2019-04-29T01:22:16.052Z,3.80
2019-04-29T01:24:48.041Z,3.33
2019-04-29T01:27:22.872Z,3.43
2019-04-29T01:29:54.076Z,2.93
2019-04-29T01:32:28.357Z,2.80
2019-04-29T01:34:58.882Z,3.17
2019-04-29T01:37:36.801Z,3.30
2019-04-29T01:40:12.034Z,3.00
2019-04-29T01:42:44.659Z,2.90
2019-04-29T01:45:15.332Z,3.00
2019-04-29T01:47:46.552Z,2.53
2019-04-29T01:50:17.471Z,2.90
2019-04-29T01:52:48.459Z,2.90
2019-04-29T01:55:18.881Z,2.87
2019-04-29T01:57:49.535Z,3.10
2019-04-29T02:00:29.855Z,3.20
2019-04-29T02:03:00.402Z,2.87
2019-04-29T02:05:30.977Z,3.27
2019-04-29T02:08:06.881Z,3.57
2019-04-29T02:10:40.463Z,3.90
2019-04-29T02:13:10.732Z,4.00
2019-04-29T02:15:41.264Z,4.50
2019-04-29T02:18:16.734Z,4.63
2019-04-29T02:20:47.495Z,5.50
2019-04-29T02:23:19.727Z,4.80
2019-04-29T02:25:51.446Z,4.63
2019-04-29T02:28:22.219Z,5.33
2019-04-29T02:30:55.603Z,6.00
2019-04-29T02:33:25.932Z,5.93
2019-04-29T02:35:56.459Z,5.10
2019-04-29T02:38:40.199Z,5.60
2019-04-29T02:41:15.424Z,4.57
2019-04-29T02:43:47.574Z,5.10
2019-04-29T02:46:18.573Z,5.87
2019-04-29T02:48:50.475Z,4.70
2019-04-29T02:51:40.269Z,4.87
2019-04-29T02:54:11.372Z,5.03
2019-04-29T02:56:47.094Z,4.50
2019-04-29T02:59:31.853Z,4.70
2019-04-29T03:02:16.772Z,4.70
2019-04-29T03:04:52.005Z,4.50
2019-04-29T03:07:29.969Z,4.90
2019-04-29T03:10:00.670Z,4.37
2019-04-29T03:12:34.741Z,4.33
2019-04-29T03:15:10.076Z,4.23
2019-04-29T03:17:41.092Z,4.30
2019-04-29T03:20:13.943Z,4.33
2019-04-29T03:22:54.201Z,4.40
2019-04-29T03:25:24.356Z,4.93
2019-04-29T03:27:54.918Z,4.27
2019-04-29T03:30:25.726Z,4.63
2019-04-29T03:32:58.185Z,4.43
2019-04-29T03:35:31.536Z,4.00
2019-04-29T03:38:02.497Z,4.33
2019-04-29T03:40:33.115Z,3.93
2019-04-29T03:43:06.540Z,4.63
2019-04-29T03:45:37.709Z,4.90
2019-04-29T03:48:11.114Z,4.47
2019-04-29T03:50:44.429Z,4.67
2019-04-29T03:53:28.389Z,5.00
2019-04-29T03:55:59.149Z,4.57
2019-04-29T03:58:30.331Z,5.30
2019-04-29T04:01:05.890Z,5.13
2019-04-29T04:03:44.255Z,5.13
2019-04-29T04:06:28.338Z,5.30
2019-04-29T04:09:05.830Z,4.97
2019-04-29T04:11:32.953Z,5.37
2019-04-29T04:14:08.180Z,5.37
2019-04-29T04:16:59.725Z,5.20
2019-04-29T04:19:35.807Z,5.10
2019-04-29T04:22:06.216Z,4.80
2019-04-29T04:24:36.950Z,5.27
2019-04-29T04:27:08.007Z,4.73
2019-04-29T04:29:38.998Z,5.20
2019-04-29T04:32:09.695Z,4.83
2019-04-29T04:34:43.255Z,5.40
2019-04-29T04:37:17.471Z,5.63
2019-04-29T04:39:48.105Z,5.43
2019-04-29T04:42:19.062Z,5.30
2019-04-29T04:44:50.873Z,4.93
2019-04-29T04:47:22.826Z,5.33
2019-04-29T04:49:53.703Z,5.53
2019-04-29T04:52:24.262Z,5.77
2019-04-29T04:54:59.110Z,5.00
2019-04-29T04:57:32.528Z,7.63
2019-04-29T05:00:02.309Z,5.87
2019-04-29T05:02:35.017Z,5.20
2019-04-29T05:05:06.331Z,5.27
2019-04-29T05:07:37.319Z,5.00
2019-04-29T05:10:08.548Z,5.07
2019-04-29T05:12:38.926Z,4.80
2019-04-29T05:15:12.638Z,4.90
2019-04-29T05:17:43.277Z,5.53
2019-04-29T05:20:14.551Z,4.73
2019-04-29T05:23:00.524Z,4.00
2019-04-29T05:25:40.303Z,4.10
2019-04-29T05:28:11.414Z,4.23
2019-04-29T05:30:42.160Z,4.27
2019-04-29T05:33:15.985Z,3.90
2019-04-29T05:35:56.598Z,3.97
2019-04-29T05:38:31.029Z,3.70
2019-04-29T05:41:01.558Z,3.97
2019-04-29T05:43:39.766Z,3.40
2019-04-29T05:46:17.478Z,3.70
2019-04-29T05:48:49.237Z,3.33
2019-04-29T05:51:22.735Z,4.07
2019-04-29T05:53:56.136Z,3.50
2019-04-29T05:56:27.037Z,3.73
2019-04-29T05:58:58.443Z,4.90
2019-04-29T06:01:36.605Z,3.67
2019-04-29T06:04:11.425Z,3.20
2019-04-29T06:06:42.436Z,3.30
2019-04-29T06:09:16.756Z,3.60
2019-04-29T06:11:48.536Z,3.47
2019-04-29T06:14:22.054Z,3.07
2019-04-29T06:16:52.965Z,2.93
2019-04-29T06:19:23.673Z,2.87
2019-04-29T06:21:54.194Z,2.70
2019-04-29T06:24:24.773Z,3.23
2019-04-29T06:26:58.451Z,3.07
2019-04-29T06:29:28.927Z,3.60
2019-04-29T06:31:59.475Z,2.83
2019-04-29T06:34:31.161Z,3.07
2019-04-29T06:37:01.757Z,2.97
2019-04-29T06:39:38.304Z,2.50
2019-04-29T06:42:08.917Z,2.70
2019-04-29T06:44:44.267Z,4.77
2019-04-29T06:47:12.811Z,5.10
2019-04-29T06:49:44.838Z,3.10
2019-04-29T06:52:19.579Z,2.40
2019-04-29T06:54:50.367Z,2.60
2019-04-29T06:57:21.781Z,2.80
2019-04-29T06:59:54.742Z,2.30
2019-04-29T07:02:25.681Z,2.47
2019-04-29T07:04:56.337Z,2.57
2019-04-29T07:07:27.173Z,2.43
2019-04-29T07:09:57.773Z,2.13
2019-04-29T07:12:28.281Z,2.70
2019-04-29T07:14:58.870Z,2.40
2019-04-29T07:17:29.773Z,2.53
2019-04-29T07:20:02.024Z,2.03
2019-04-29T07:22:36.290Z,2.30
2019-04-29T07:25:07.813Z,2.23
2019-04-29T07:27:43.121Z,1.80
2019-04-29T07:30:11.523Z,2.17
2019-04-29T07:32:47.219Z,2.10
2019-04-29T07:35:15.869Z,2.40
2019-04-29T07:37:46.606Z,2.10
2019-04-29T07:40:18.093Z,4.00
2019-04-29T07:42:51.320Z,3.53
2019-04-29T07:45:43.705Z,2.00
2019-04-29T07:48:08.252Z,2.20
2019-04-29T07:50:38.846Z,2.33
2019-04-29T07:53:11.252Z,2.10
2019-04-29T07:55:44.476Z,1.73
2019-04-29T07:58:17.134Z,1.47
2019-04-29T08:00:52.013Z,2.20
2019-04-29T08:03:22.629Z,1.87
2019-04-29T08:05:54.322Z,1.73
2019-04-29T08:08:26.077Z,2.20
2019-04-29T08:10:56.896Z,1.93
2019-04-29T08:13:32.241Z,2.03
2019-04-29T08:16:02.786Z,2.27
2019-04-29T08:18:35.726Z,2.00
2019-04-29T08:21:10.167Z,1.40
2019-04-29T08:23:42.268Z,1.60
2019-04-29T08:26:11.467Z,1.90
2019-04-29T08:28:42.652Z,2.00
2019-04-29T08:31:16.642Z,1.70
2019-04-29T08:33:48.398Z,2.23
2019-04-29T08:36:19.274Z,1.20
2019-04-29T08:38:50.386Z,1.27
2019-04-29T08:41:28.558Z,1.70
2019-04-29T08:44:15.266Z,1.30
2019-04-29T08:46:35.261Z,1.40
2019-04-29T08:49:07.772Z,1.77
2019-04-29T08:51:40.822Z,1.70
2019-04-29T08:54:11.177Z,2.10
2019-04-29T08:57:01.820Z,1.13
2019-04-29T08:59:20.740Z,1.30
2019-04-29T09:01:53.117Z,2.27
2019-04-29T09:04:28.400Z,1.90
2019-04-29T09:06:57.323Z,1.40
2019-04-29T09:09:29.616Z,1.43
2019-04-29T09:12:02.684Z,0.90
2019-04-29T09:14:34.527Z,1.40
2019-04-29T09:17:19.850Z,1.40
2019-04-29T09:19:39.468Z,1.40
2019-04-29T09:22:11.964Z,1.10
2019-04-29T09:24:48.242Z,1.80
2019-04-29T09:27:19.528Z,1.27
2019-04-29T09:29:54.230Z,1.00
2019-04-29T09:32:23.162Z,1.50
2019-04-29T09:34:55.646Z,1.00
2019-04-29T09:37:26.405Z,1.30
2019-04-29T09:39:57.274Z,1.57
2019-04-29T09:42:45.549Z,1.10
2019-04-29T09:45:33.504Z,1.27
2019-04-29T09:48:04.156Z,0.97
2019-04-29T09:50:39.188Z,1.03
2019-04-29T09:53:09.209Z,0.67
2019-04-29T09:55:41.154Z,1.17
2019-04-29T09:58:11.881Z,0.97
2019-04-29T10:00:53.962Z,1.17
2019-04-29T10:03:26.365Z,1.30
2019-04-29T10:06:12.509Z,1.40
2019-04-29T10:08:43.235Z,1.60
2019-04-29T10:11:15.010Z,1.40
2019-04-29T10:13:45.839Z,0.90
2019-04-29T10:16:18.316Z,0.97
2019-04-29T10:19:05.147Z,1.33
2019-04-29T10:21:36.493Z,1.23
2019-04-29T10:24:09.993Z,1.27
2019-04-29T10:26:40.649Z,1.67
2019-04-29T10:29:13.770Z,1.13
2019-04-29T10:31:45.686Z,1.37
2019-04-29T10:34:17.114Z,1.70
2019-04-29T10:36:52.189Z,1.07
2019-04-29T10:39:42.490Z,1.50
2019-04-29T10:42:26.704Z,1.17
2019-04-29T10:45:08.252Z,1.13
2019-04-29T10:47:47.039Z,0.70
2019-04-29T10:50:20.241Z,1.20
2019-04-29T10:52:51.729Z,1.10
2019-04-29T10:55:25.606Z,0.90
2019-04-29T10:57:57.756Z,1.27
2019-04-29T11:00:43.116Z,0.80
2019-04-29T11:03:15.636Z,0.80
2019-04-29T11:05:59.984Z,0.57
2019-04-29T11:08:21.721Z,0.60
2019-04-29T11:11:02.266Z,0.93
2019-04-29T11:13:32.024Z,1.00
2019-04-29T11:16:02.890Z,0.90
2019-04-29T11:18:34.066Z,1.30
2019-04-29T11:21:12.153Z,1.10
2019-04-29T11:23:54.780Z,1.00
2019-04-29T11:26:28.117Z,0.90
2019-04-29T11:29:00.898Z,0.67
2019-04-29T11:31:33.644Z,1.00
2019-04-29T11:34:11.540Z,1.20
2019-04-29T11:36:44.082Z,1.00
2019-04-29T11:39:18.947Z,1.00
2019-04-29T11:41:50.213Z,0.90
2019-04-29T11:44:26.487Z,1.00
2019-04-29T11:46:55.586Z,0.70
2019-04-29T11:49:28.382Z,1.13
2019-04-29T11:52:09.124Z,0.87
2019-04-29T11:54:32.171Z,0.97
2019-04-29T11:57:02.896Z,1.00
2019-04-29T11:59:38.565Z,1.00
2019-04-29T12:02:44.183Z,0.70
2019-04-29T12:04:58.961Z,0.80
2019-04-29T12:07:32.515Z,0.97
2019-04-29T12:10:02.246Z,1.03
2019-04-29T12:28:01.211Z,1.40
2019-04-29T12:30:34.030Z,1.27
2019-04-29T12:33:03.599Z,1.83
2019-04-29T12:35:35.923Z,1.87
2019-04-29T12:38:11.663Z,1.33
2019-04-29T12:40:57.489Z,1.70
2019-04-29T12:43:53.575Z,1.27
2019-04-29T12:46:27.580Z,1.50
2019-04-29T12:48:58.901Z,1.13
2019-04-29T12:51:29.658Z,1.60
2019-04-29T12:54:00.177Z,1.13
2019-04-29T12:56:33.457Z,1.53
2019-04-29T12:59:05.116Z,1.40
2019-04-29T13:01:50.953Z,1.20
2019-04-29T13:04:14.794Z,1.60
2019-04-29T13:07:02.510Z,1.17
2019-04-29T13:09:53.718Z,1.47
2019-04-29T13:12:24.327Z,1.30
2019-04-29T13:15:15.746Z,1.50
2019-04-29T13:18:03.677Z,1.10
2019-04-29T13:20:30.122Z,1.60
2019-04-29T13:23:16.964Z,1.60
2019-04-29T13:25:32.963Z,1.37
2019-04-29T13:28:05.247Z,1.37
2019-04-29T13:30:43.262Z,1.40
2019-04-29T13:33:16.636Z,1.80
2019-04-29T13:35:48.472Z,1.80
2019-04-29T13:38:16.953Z,1.50
2019-04-29T13:40:50.890Z,1.10
2019-04-29T13:43:25.966Z,1.73
2019-04-29T13:46:05.233Z,1.90
2019-04-29T13:49:01.509Z,2.00
2019-04-29T13:51:36.618Z,1.70
2019-04-29T13:54:08.471Z,2.00
2019-04-29T13:56:55.589Z,2.80
2019-04-29T13:59:17.322Z,2.00
2019-04-29T14:01:59.542Z,1.60
2019-04-29T14:04:26.071Z,1.73
2019-04-29T14:06:58.996Z,1.43
2019-04-29T14:09:29.479Z,1.53
2019-04-29T14:12:15.288Z,1.50
2019-04-29T14:14:42.746Z,1.70
2019-04-29T14:17:26.002Z,1.47
2019-04-29T14:19:46.626Z,2.20
2019-04-29T14:22:22.389Z,1.60
2019-04-29T14:24:53.109Z,1.50
2019-04-29T14:27:25.528Z,2.20
2019-04-29T14:29:56.600Z,1.80
2019-04-29T14:32:35.960Z,1.80
2019-04-29T14:35:15.208Z,1.50
2019-04-29T14:37:55.013Z,1.53
2019-04-29T14:40:18.998Z,2.00
2019-04-29T14:43:02.977Z,1.90
2019-04-29T14:45:54.354Z,2.37
2019-04-29T14:48:41.607Z,2.47
2019-04-29T14:51:02.705Z,2.20
2019-04-29T14:53:33.833Z,2.10
2019-04-29T14:56:04.682Z,2.30
2019-04-29T14:58:41.758Z,2.50
2019-04-29T15:01:16.742Z,2.40
2019-04-29T15:03:52.350Z,2.67
2019-04-29T15:06:23.658Z,9.60
2019-04-29T15:08:56.646Z,2.90
2019-04-29T15:11:32.636Z,2.50
2019-04-29T15:14:23.832Z,2.87
2019-04-29T15:16:55.495Z,3.00
2019-04-29T15:19:49.402Z,2.77
2019-04-29T15:22:20.447Z,3.30
2019-04-29T15:24:52.278Z,3.00
2019-04-29T15:27:25.010Z,3.40
2019-04-29T15:29:55.521Z,2.90
2019-04-29T15:32:28.616Z,3.70
2019-04-29T15:34:59.315Z,3.47
2019-04-29T15:37:30.382Z,3.97
2019-04-29T15:40:02.758Z,3.97
2019-04-29T15:42:33.388Z,4.10
2019-04-29T15:45:07.992Z,3.93
2019-04-29T15:47:41.733Z,4.30
2019-04-29T15:50:18.966Z,4.50
2019-04-29T15:52:48.293Z,4.53
2019-04-29T15:55:19.087Z,5.40
2019-04-29T15:57:51.585Z,4.60
2019-04-29T16:00:25.383Z,4.77
2019-04-29T16:02:55.994Z,4.73
2019-04-29T16:05:29.123Z,5.10
2019-04-29T16:08:11.119Z,4.97
2019-04-29T16:10:59.468Z,5.70
2019-04-29T16:13:30.009Z,5.50
2019-04-29T16:16:00.690Z,5.30
2019-04-29T16:18:35.215Z,5.90
2019-04-29T16:21:05.922Z,6.07
2019-04-29T16:23:38.732Z,6.03
2019-04-29T16:26:09.890Z,6.10
2019-04-29T16:28:40.471Z,6.77
2019-04-29T16:36:58.014Z,6.17
2019-04-29T16:39:52.892Z,6.57
2019-04-29T16:42:25.625Z,7.40
2019-04-29T16:44:56.738Z,6.50
2019-04-29T16:47:29.095Z,6.60
2019-04-29T16:50:04.660Z,6.87
2019-04-29T16:52:35.701Z,7.23
2019-04-29T16:55:08.623Z,7.27
2019-04-29T16:57:39.259Z,6.80
2019-04-29T17:00:14.796Z,6.50
2019-04-29T17:02:48.980Z,6.63
2019-04-29T17:05:20.318Z,6.87
2019-04-29T17:07:52.233Z,6.97
2019-04-29T17:10:30.718Z,7.47
2019-04-29T17:13:01.406Z,7.47
2019-04-29T17:15:32.703Z,7.47
2019-04-29T17:18:03.579Z,7.23
2019-04-29T17:20:34.207Z,7.43
2019-04-29T17:23:05.221Z,7.63
2019-04-29T17:25:35.898Z,6.80
2019-04-29T17:28:12.185Z,7.47
2019-04-29T17:30:58.028Z,7.27
2019-04-29T17:33:37.486Z,6.83
2019-04-29T17:36:09.007Z,8.03
2019-04-29T17:38:41.884Z,7.53
2019-04-29T17:41:12.570Z,7.53
2019-04-29T17:43:51.120Z,7.63
2019-04-29T17:46:26.460Z,6.90
2019-04-29T17:48:58.528Z,6.77
2019-04-29T17:51:29.508Z,6.50
2019-04-29T17:54:05.875Z,6.77
2019-04-29T17:56:40.672Z,6.20
2019-04-29T17:59:29.619Z,6.80
2019-04-29T18:05:18.809Z,6.60
2019-04-29T18:07:52.015Z,6.50
2019-04-29T18:10:40.019Z,6.83
2019-04-29T18:13:12.438Z,6.50
2019-04-29T18:16:00.012Z,7.03
2019-04-29T18:18:18.692Z,6.93
2019-04-29T18:21:07.379Z,6.80
2019-04-29T18:23:47.111Z,6.70
2019-04-29T18:26:22.231Z,6.43
2019-04-29T18:28:56.825Z,6.77
2019-04-29T18:31:26.408Z,5.80
2019-04-29T18:33:59.343Z,6.40
2019-04-29T18:36:30.455Z,6.20
2019-04-29T18:41:41.040Z,6.23
2019-04-29T18:44:18.968Z,5.90
2019-04-29T18:46:53.260Z,6.43
2019-04-29T18:49:16.335Z,6.63
2019-04-29T18:51:47.158Z,6.53
2019-04-29T18:54:18.108Z,6.90
2019-04-29T18:56:48.930Z,7.00
2019-04-29T18:59:21.328Z,6.80
2019-04-29T19:01:52.260Z,6.67
2019-04-29T19:04:30.176Z,6.77
2019-04-29T19:07:02.591Z,6.37
2019-04-29T19:09:35.763Z,7.03
2019-04-29T19:12:07.605Z,6.70
2019-04-29T19:14:38.206Z,6.77
2019-04-29T19:17:09.438Z,6.57
2019-04-29T19:19:40.586Z,7.00
2019-04-29T19:22:11.613Z,7.17
2019-04-29T19:24:44.319Z,7.50
2019-04-29T19:27:15.024Z,7.73
2019-04-29T19:29:45.951Z,7.03
2019-04-29T19:32:18.865Z,7.77
2019-04-29T19:34:50.055Z,7.23
2019-04-29T19:37:21.522Z,7.73
2019-04-29T19:39:52.533Z,7.93
2019-04-29T19:42:30.973Z,8.10
2019-04-29T19:44:57.629Z,8.40
2019-04-29T19:47:28.477Z,8.30
2019-04-29T19:49:59.405Z,7.93
2019-04-29T19:52:31.947Z,7.77
2019-04-29T19:55:03.370Z,7.60
2019-04-29T19:57:37.905Z,8.13
2019-04-29T20:00:08.144Z,7.83
2019-04-29T20:02:48.221Z,7.53
2019-04-29T20:05:23.612Z,7.20
2019-04-29T20:07:55.905Z,7.30
2019-04-29T20:10:28.810Z,7.00
2019-04-29T20:12:59.092Z,6.87
2019-04-29T20:15:33.929Z,7.13
2019-04-29T20:18:08.681Z,6.83
2019-04-29T20:20:46.037Z,7.33
2019-04-29T20:23:24.743Z,7.27
2019-04-29T20:25:51.616Z,8.03
2019-04-29T20:28:22.344Z,7.20
2019-04-29T20:30:57.055Z,7.23
2019-04-29T20:33:30.636Z,7.80
2019-04-29T20:36:02.336Z,7.80
2019-04-29T20:38:35.211Z,8.40
2019-04-29T20:41:07.979Z,8.40
2019-04-29T20:43:42.026Z,8.07
2019-04-29T20:46:12.891Z,7.57
2019-04-29T20:48:45.454Z,8.27
2019-04-29T20:51:16.699Z,8.60
2019-04-29T20:53:52.010Z,8.27
2019-04-29T20:56:27.390Z,8.60
2019-04-29T20:59:02.037Z,9.30
2019-04-29T21:01:38.676Z,8.10
2019-04-29T21:04:06.105Z,8.27
2019-04-29T21:06:43.891Z,8.70
2019-04-29T21:09:10.368Z,8.17
2019-04-29T21:11:42.711Z,10.10
2019-04-29T21:14:34.024Z,7.83
2019-04-29T21:17:02.267Z,8.40
2019-04-29T21:19:31.892Z,6.80
2019-04-29T21:22:02.442Z,7.60
2019-04-29T21:24:35.170Z,8.13
2019-04-29T21:27:05.611Z,7.30
2019-04-29T21:29:36.276Z,7.97
2019-04-29T21:32:07.348Z,7.80
2019-04-29T21:34:40.016Z,7.73
2019-04-29T21:37:21.406Z,7.67
2019-04-29T21:40:00.100Z,7.03
2019-04-29T21:42:38.866Z,8.00
2019-04-29T21:45:11.792Z,7.40
2019-04-29T21:47:45.658Z,7.40
2019-04-29T21:50:16.946Z,8.00
2019-04-29T21:52:48.097Z,7.60
2019-04-29T21:55:25.896Z,8.23
2019-04-29T21:57:58.807Z,8.07
2019-04-29T22:00:31.518Z,7.20
2019-04-29T22:03:05.463Z,7.53
2019-04-29T22:05:39.043Z,7.87
2019-04-29T22:08:09.643Z,7.37
2019-04-29T22:10:41.536Z,8.00
2019-04-29T22:13:12.201Z,7.50
2019-04-29T22:15:42.908Z,7.70
2019-04-29T22:18:16.024Z,7.00
2019-04-29T22:20:46.206Z,7.37
2019-04-29T22:23:20.076Z,7.23
2019-04-29T22:25:50.635Z,6.97
2019-04-29T22:28:21.169Z,7.17
2019-04-29T22:30:54.931Z,6.43
2019-04-29T22:33:29.595Z,7.43
2019-04-29T22:35:56.662Z,7.80
2019-04-29T22:38:27.229Z,6.80
2019-04-29T22:40:59.784Z,6.20
2019-04-29T22:43:46.955Z,7.07
2019-04-29T22:46:17.663Z,7.37
2019-04-29T22:48:48.856Z,7.83
2019-04-29T22:51:19.621Z,7.57
2019-04-29T22:53:50.279Z,8.13
2019-04-29T22:56:21.359Z,7.60
2019-04-29T22:58:52.133Z,8.13
2019-04-29T23:01:22.797Z,7.93
2019-04-29T23:03:55.323Z,8.00
2019-04-29T23:06:25.944Z,7.97
2019-04-29T23:08:58.988Z,8.30
2019-04-29T23:11:29.973Z,7.63
2019-04-29T23:14:01.713Z,8.90
2019-04-29T23:16:35.589Z,7.80
2019-04-29T23:19:09.922Z,8.23
2019-04-29T23:21:57.189Z,8.10
2019-04-29T23:24:32.244Z,8.07
2019-04-29T23:27:06.209Z,7.90
2019-04-29T23:29:43.049Z,7.57
2019-04-29T23:32:10.585Z,7.40
2019-04-29T23:34:41.125Z,7.23
2019-04-29T23:37:11.751Z,7.90
2019-04-29T23:39:42.458Z,7.80
2019-04-29T23:42:14.414Z,8.17
2019-04-29T23:45:21.119Z,8.37
2019-04-29T23:47:56.169Z,7.50
2019-04-29T23:50:28.174Z,8.47
2019-04-29T23:52:59.552Z,7.90
2019-04-29T23:55:30.413Z,9.00
2019-04-29T23:58:14.207Z,7.77
